createdAt,value
2022-12-08T00:01:06.488Z,66.22
2022-12-08T00:04:08.241Z,66.65
2022-12-08T00:07:28.529Z,67.98
2022-12-08T00:13:51.428Z,67.83
2022-12-08T00:16:53.538Z,67.19
2022-12-08T00:19:54.995Z,66.87
2022-12-08T00:22:56.583Z,67.23
2022-12-08T00:26:02.170Z,67.61
2022-12-08T00:29:04.166Z,67.29
2022-12-08T00:32:06.460Z,67.69
2022-12-08T00:35:08.194Z,68.24
2022-12-08T00:38:09.620Z,67.84
2022-12-08T00:41:14.979Z,67.11
2022-12-08T00:44:18.927Z,67.94
2022-12-08T00:47:24.644Z,68.49
2022-12-08T00:50:26.505Z,68.73
2022-12-08T00:53:27.954Z,67.84
2022-12-08T00:56:29.413Z,67.48
2022-12-08T00:59:30.953Z,67.80
2022-12-08T01:02:34.304Z,67.19
2022-12-08T01:05:35.766Z,65.75
2022-12-08T01:08:38.257Z,66.00
2022-12-08T01:11:39.662Z,67.01
2022-12-08T01:14:41.117Z,67.41
2022-12-08T01:17:42.561Z,67.21
2022-12-08T01:20:44.010Z,67.27
2022-12-08T01:23:46.820Z,66.70
2022-12-08T01:26:49.917Z,67.33
2022-12-08T01:29:51.569Z,67.78
2022-12-08T01:32:53.005Z,67.33
2022-12-08T01:35:55.411Z,69.06
2022-12-08T01:38:57.550Z,69.16
2022-12-08T01:41:58.978Z,68.12
2022-12-08T01:45:07.239Z,66.79
2022-12-08T01:48:14.810Z,66.36
2022-12-08T01:51:16.486Z,67.43
2022-12-08T01:54:19.428Z,67.95
2022-12-08T01:57:45.262Z,68.33
2022-12-08T02:00:48.887Z,68.73
2022-12-08T02:03:57.026Z,68.60
2022-12-08T02:07:02.449Z,68.39
2022-12-08T02:10:07.160Z,67.89
2022-12-08T02:13:13.186Z,67.56
2022-12-08T02:16:32.741Z,67.43
2022-12-08T02:20:00.772Z,67.78
2022-12-08T02:23:30.846Z,68.71
2022-12-08T02:26:51.431Z,67.43
2022-12-08T02:30:11.649Z,67.80
2022-12-08T02:33:52.920Z,68.11
2022-12-08T02:37:06.833Z,67.89
2022-12-08T02:40:32.958Z,68.41
2022-12-08T02:43:42.643Z,68.08
2022-12-08T02:47:10.455Z,68.13
2022-12-08T02:50:12.341Z,68.48
2022-12-08T02:56:28.364Z,68.45
2022-12-08T02:59:47.241Z,68.58
2022-12-08T03:02:56.784Z,69.74
2022-12-08T03:06:24.730Z,69.32
2022-12-08T03:09:39.748Z,68.73
2022-12-08T03:12:49.647Z,68.44
2022-12-08T03:15:52.739Z,68.12
2022-12-08T03:19:03.413Z,68.16
2022-12-08T03:22:07.062Z,68.40
2022-12-08T03:25:13.042Z,68.18
2022-12-08T03:28:15.042Z,67.97
2022-12-08T03:31:19.421Z,67.95
2022-12-08T03:34:24.213Z,68.21
2022-12-08T03:37:27.810Z,67.96
2022-12-08T03:40:29.407Z,67.05
2022-12-08T03:43:30.826Z,67.53
2022-12-08T03:46:32.290Z,66.87
2022-12-08T03:49:33.832Z,66.65
2022-12-08T03:52:35.241Z,66.54
2022-12-08T03:55:36.651Z,67.20
2022-12-08T03:58:38.066Z,67.06
2022-12-08T04:01:39.596Z,67.37
2022-12-08T04:04:41.120Z,67.98
2022-12-08T04:07:43.118Z,68.26
2022-12-08T04:10:44.666Z,68.03
2022-12-08T04:13:46.910Z,67.63
2022-12-08T04:16:48.355Z,67.90
2022-12-08T04:19:49.797Z,68.78
2022-12-08T04:22:51.241Z,67.57
2022-12-08T04:25:53.345Z,68.01
2022-12-08T04:28:54.751Z,67.65
2022-12-08T04:31:56.210Z,67.54
2022-12-08T04:34:57.738Z,66.92
2022-12-08T04:37:59.311Z,67.52
2022-12-08T04:41:01.221Z,67.87
2022-12-08T04:44:02.680Z,68.06
2022-12-08T04:47:05.249Z,67.16
2022-12-08T04:50:08.133Z,67.57
2022-12-08T04:53:10.406Z,67.65
2022-12-08T04:56:17.602Z,67.63
2022-12-08T04:59:19.016Z,67.94
2022-12-08T05:02:20.546Z,68.00
2022-12-08T05:05:22.097Z,67.30
2022-12-08T05:08:23.607Z,67.38
2022-12-08T05:11:25.085Z,67.57
2022-12-08T05:14:26.517Z,67.02
2022-12-08T05:17:27.913Z,66.74
2022-12-08T05:20:29.368Z,66.76
2022-12-08T05:23:31.298Z,67.18
2022-12-08T05:26:33.080Z,67.08
2022-12-08T05:29:34.511Z,66.84
2022-12-08T05:32:36.010Z,66.76
2022-12-08T05:35:37.548Z,66.81
2022-12-08T05:38:39.193Z,66.28
2022-12-08T05:41:41.074Z,66.44
2022-12-08T05:44:42.564Z,66.67
2022-12-08T05:47:43.975Z,66.68
2022-12-08T05:50:49.643Z,67.32
2022-12-08T05:53:52.374Z,66.88
2022-12-08T05:56:53.798Z,66.79
2022-12-08T05:59:57.006Z,66.81
2022-12-08T06:02:58.599Z,66.96
2022-12-08T06:06:00.143Z,67.32
2022-12-08T06:09:05.816Z,67.19
2022-12-08T06:12:07.267Z,66.52
2022-12-08T06:15:09.096Z,66.30
2022-12-08T06:18:11.891Z,65.97
2022-12-08T06:21:15.144Z,66.50
2022-12-08T06:24:16.578Z,66.00
2022-12-08T06:27:18.033Z,66.55
2022-12-08T06:30:19.516Z,67.01
2022-12-08T06:33:20.972Z,66.83
2022-12-08T06:36:25.440Z,67.15
2022-12-08T06:39:26.917Z,66.99
2022-12-08T06:42:43.601Z,66.24
2022-12-08T06:45:45.055Z,66.60
2022-12-08T06:48:46.998Z,67.00
2022-12-08T06:51:48.389Z,67.28
2022-12-08T06:54:49.928Z,66.67
2022-12-08T06:57:54.156Z,66.98
2022-12-08T07:00:55.823Z,68.39
2022-12-08T07:03:57.293Z,67.95
2022-12-08T07:06:58.701Z,68.08
2022-12-08T07:10:00.134Z,68.14
2022-12-08T07:13:01.995Z,67.70
2022-12-08T07:16:11.878Z,67.22
2022-12-08T07:19:13.333Z,67.51
2022-12-08T07:22:14.762Z,67.08
2022-12-08T07:25:16.966Z,67.00
2022-12-08T07:28:18.410Z,67.14
2022-12-08T07:31:25.192Z,67.00
2022-12-08T07:34:26.723Z,67.53
2022-12-08T07:37:28.115Z,67.50
2022-12-08T07:40:29.606Z,67.42
2022-12-08T07:43:31.405Z,67.60
2022-12-08T07:46:32.882Z,67.73
2022-12-08T07:49:34.490Z,68.31
2022-12-08T07:52:35.919Z,67.85
2022-12-08T07:55:42.180Z,67.92
2022-12-08T07:58:45.813Z,68.54
2022-12-08T08:02:05.066Z,67.71
2022-12-08T08:05:12.178Z,67.59
2022-12-08T08:08:13.687Z,67.81
2022-12-08T08:11:20.997Z,66.57
2022-12-08T08:14:22.922Z,66.20
2022-12-08T08:17:24.427Z,66.09
2022-12-08T08:20:26.442Z,65.80
2022-12-08T08:23:28.137Z,65.68
2022-12-08T08:26:29.628Z,65.81
2022-12-08T08:29:31.025Z,66.68
2022-12-08T08:32:33.831Z,66.32
2022-12-08T08:35:35.287Z,67.08
2022-12-08T08:38:40.050Z,65.73
2022-12-08T08:41:41.581Z,65.62
2022-12-08T08:44:43.023Z,65.34
2022-12-08T08:47:44.606Z,65.49
2022-12-08T08:50:46.045Z,65.80
2022-12-08T08:53:47.525Z,65.79
2022-12-08T08:56:48.957Z,65.55
2022-12-08T08:59:50.381Z,64.96
2022-12-08T09:02:51.851Z,65.56
2022-12-08T09:05:55.473Z,65.72
2022-12-08T09:08:57.129Z,64.93
2022-12-08T09:11:58.699Z,64.93
2022-12-08T09:15:00.091Z,64.90
2022-12-08T09:18:01.586Z,64.83
2022-12-08T09:21:25.941Z,64.79
2022-12-08T09:24:27.517Z,64.51
2022-12-08T09:27:28.977Z,64.63
2022-12-08T09:30:30.388Z,64.63
2022-12-08T09:33:32.106Z,64.50
2022-12-08T09:36:33.559Z,64.24
2022-12-08T09:39:35.000Z,63.56
2022-12-08T09:43:03.539Z,64.56
2022-12-08T09:46:07.664Z,64.17
2022-12-08T09:49:17.491Z,63.39
2022-12-08T09:52:23.782Z,63.78
2022-12-08T09:55:42.654Z,63.16
2022-12-08T09:59:15.893Z,62.71
2022-12-08T10:02:26.331Z,63.08
2022-12-08T10:05:31.186Z,62.69
2022-12-08T10:08:47.908Z,62.98
2022-12-08T10:12:08.090Z,63.57
2022-12-08T10:15:49.170Z,62.92
2022-12-08T10:19:23.878Z,62.49
2022-12-08T10:22:31.348Z,61.78
2022-12-08T10:25:47.654Z,59.53
2022-12-08T10:28:49.351Z,59.64
2022-12-08T10:31:50.856Z,60.27
2022-12-08T10:35:03.053Z,60.15
2022-12-08T10:38:06.393Z,60.57
2022-12-08T10:41:10.933Z,60.06
2022-12-08T10:44:12.388Z,59.89
2022-12-08T10:47:14.392Z,60.14
2022-12-08T10:50:27.757Z,60.68
2022-12-08T10:53:31.723Z,60.17
2022-12-08T10:56:33.539Z,60.88
2022-12-08T10:59:35.095Z,60.30
2022-12-08T11:02:36.606Z,61.08
2022-12-08T11:05:38.585Z,61.78
2022-12-08T11:08:48.215Z,59.96
2022-12-08T11:11:59.677Z,60.49
2022-12-08T11:15:03.415Z,60.60
2022-12-08T11:18:28.062Z,60.76
2022-12-08T11:21:37.760Z,60.89
2022-12-08T11:24:39.335Z,60.55
2022-12-08T11:27:46.481Z,59.88
2022-12-08T11:30:54.401Z,59.89
2022-12-08T11:33:56.194Z,59.58
2022-12-08T11:36:59.145Z,58.71
2022-12-08T11:40:04.988Z,59.13
2022-12-08T11:43:16.829Z,58.33
2022-12-08T11:46:33.710Z,58.50
2022-12-08T11:49:41.889Z,57.68
2022-12-08T11:52:46.999Z,58.29
2022-12-08T11:56:05.186Z,59.04
2022-12-08T11:59:14.151Z,57.56
2022-12-08T12:02:45.001Z,58.04
2022-12-08T12:06:38.072Z,57.91
2022-12-08T12:10:07.442Z,57.83
2022-12-08T12:13:27.258Z,58.73
2022-12-08T12:16:48.973Z,56.58
2022-12-08T12:19:52.047Z,57.42
2022-12-08T12:23:08.034Z,56.55
2022-12-08T12:26:18.893Z,56.16
2022-12-08T12:29:23.831Z,56.98
2022-12-08T12:32:27.271Z,55.06
2022-12-08T12:35:37.355Z,55.27
2022-12-08T12:39:01.977Z,54.97
2022-12-08T12:42:05.085Z,54.18
2022-12-08T12:45:19.855Z,54.22
2022-12-08T12:48:24.662Z,56.44
2022-12-08T12:51:45.371Z,54.68
2022-12-08T12:54:49.769Z,54.99
2022-12-08T12:57:57.258Z,55.09
2022-12-08T13:01:13.939Z,54.74
2022-12-08T13:04:17.272Z,54.50
2022-12-08T13:07:25.022Z,53.78
2022-12-08T13:10:35.439Z,54.23
2022-12-08T13:13:37.881Z,54.35
2022-12-08T13:16:39.887Z,53.95
2022-12-08T13:19:45.388Z,54.71
2022-12-08T13:22:54.740Z,53.31
2022-12-08T13:26:09.762Z,53.25
2022-12-08T13:29:26.901Z,54.21
2022-12-08T13:32:28.255Z,54.16
2022-12-08T13:35:30.296Z,52.88
2022-12-08T13:38:35.450Z,52.69
2022-12-08T13:41:48.064Z,52.73
2022-12-08T13:45:21.308Z,50.90
2022-12-08T13:49:41.892Z,51.88
2022-12-08T13:56:51.414Z,51.28
2022-12-08T13:58:50.642Z,51.48
2022-12-08T14:01:52.211Z,52.46
2022-12-08T14:05:17.301Z,51.80
2022-12-08T14:08:50.434Z,51.80
2022-12-08T14:11:47.954Z,50.65
2022-12-08T14:15:03.111Z,50.30
2022-12-08T14:18:21.291Z,49.17
2022-12-08T14:21:22.745Z,50.12
2022-12-08T14:24:26.401Z,49.98
2022-12-08T14:27:33.538Z,50.58
2022-12-08T14:30:37.063Z,48.98
2022-12-08T14:33:38.559Z,50.12
2022-12-08T14:36:40.244Z,51.05
2022-12-08T14:39:41.938Z,50.90
2022-12-08T14:42:50.405Z,50.98
2022-12-08T14:45:57.167Z,51.85
2022-12-08T14:48:59.693Z,52.38
2022-12-08T14:52:01.675Z,52.09
2022-12-08T14:55:07.286Z,52.43
2022-12-08T14:58:18.168Z,53.01
2022-12-08T15:01:23.430Z,53.71
2022-12-08T15:04:28.312Z,54.49
2022-12-08T15:08:02.409Z,54.06
2022-12-08T15:11:22.140Z,54.45
2022-12-08T15:14:32.772Z,54.91
2022-12-08T15:17:36.036Z,55.14
2022-12-08T15:20:56.589Z,56.26
2022-12-08T15:23:58.544Z,57.32
2022-12-08T15:27:00.453Z,57.46
2022-12-08T15:30:02.087Z,55.67
2022-12-08T15:33:03.627Z,57.58
2022-12-08T15:36:05.280Z,57.71
2022-12-08T15:39:14.391Z,57.48
2022-12-08T15:42:16.162Z,57.92
2022-12-08T15:45:17.714Z,57.81
2022-12-08T15:48:22.074Z,57.78
2022-12-08T15:51:23.509Z,58.68
2022-12-08T15:54:25.078Z,58.46
2022-12-08T16:00:55.432Z,58.73
2022-12-08T16:07:27.946Z,58.38
2022-12-08T16:10:59.054Z,57.81
2022-12-08T16:14:19.873Z,57.47
2022-12-08T16:17:15.443Z,59.77
2022-12-08T16:20:18.150Z,58.06
2022-12-08T16:23:41.852Z,58.21
2022-12-08T16:30:03.110Z,59.64
2022-12-08T16:33:05.034Z,59.46
2022-12-08T16:36:06.729Z,59.70
2022-12-08T16:39:12.315Z,59.25
2022-12-08T16:42:37.340Z,59.95
2022-12-08T16:45:45.075Z,60.94
2022-12-08T16:48:46.865Z,61.66
2022-12-08T16:51:48.509Z,62.49
2022-12-08T16:54:50.044Z,62.28
2022-12-08T16:57:51.506Z,61.91
2022-12-08T17:00:52.995Z,63.00
2022-12-08T17:04:29.785Z,61.92
2022-12-08T17:07:16.279Z,61.60
2022-12-08T17:10:22.835Z,60.48
2022-12-08T17:13:24.272Z,61.11
2022-12-08T17:16:26.831Z,60.80
2022-12-08T17:19:28.423Z,61.25
2022-12-08T17:22:33.715Z,61.25
2022-12-08T17:25:37.273Z,61.44
2022-12-08T17:28:59.580Z,61.98
2022-12-08T17:32:00.870Z,62.47
2022-12-08T17:35:02.633Z,62.54
2022-12-08T17:38:04.256Z,62.93
2022-12-08T17:41:08.420Z,62.79
2022-12-08T17:44:18.248Z,62.90
2022-12-08T17:47:19.757Z,61.41
2022-12-08T17:50:21.307Z,61.19
2022-12-08T17:53:23.095Z,60.41
2022-12-08T17:56:24.592Z,60.19
2022-12-08T17:59:27.522Z,60.10
2022-12-08T18:02:30.344Z,60.56
2022-12-08T18:05:31.838Z,60.49
2022-12-08T18:08:33.353Z,63.25
2022-12-08T18:11:35.698Z,63.12
2022-12-08T18:14:37.195Z,63.11
2022-12-08T18:17:38.648Z,63.50
2022-12-08T18:20:40.144Z,63.52
2022-12-08T18:23:43.172Z,62.68
2022-12-08T18:26:45.065Z,63.85
2022-12-08T18:29:46.686Z,62.94
2022-12-08T18:32:49.870Z,63.91
2022-12-08T18:35:54.392Z,63.65
2022-12-08T18:38:55.858Z,63.32
2022-12-08T18:41:58.474Z,63.49
2022-12-08T18:45:04.116Z,62.13
2022-12-08T18:48:06.194Z,62.37
2022-12-08T18:51:15.300Z,63.54
2022-12-08T18:54:16.738Z,63.66
2022-12-08T18:57:18.263Z,63.57
2022-12-08T19:00:20.200Z,63.12
2022-12-08T19:03:21.855Z,64.22
2022-12-08T19:06:23.334Z,64.09
2022-12-08T19:09:26.854Z,64.46
2022-12-08T19:12:28.477Z,64.27
2022-12-08T19:15:30.244Z,64.47
2022-12-08T19:18:31.718Z,63.66
2022-12-08T19:21:33.950Z,63.73
2022-12-08T19:24:36.657Z,63.65
2022-12-08T19:27:38.184Z,63.57
2022-12-08T19:30:39.684Z,63.81
2022-12-08T19:33:41.439Z,64.34
2022-12-08T19:36:43.133Z,64.10
2022-12-08T19:40:03.145Z,62.42
2022-12-08T19:43:23.140Z,62.19
2022-12-08T19:46:25.974Z,62.49
2022-12-08T19:49:27.516Z,63.43
2022-12-08T19:52:28.921Z,63.83
2022-12-08T19:55:30.805Z,63.72
2022-12-08T19:58:32.269Z,63.98
2022-12-08T20:01:33.912Z,62.80
2022-12-08T20:04:35.388Z,62.35
2022-12-08T20:07:36.857Z,62.29
2022-12-08T20:10:41.972Z,62.06
2022-12-08T20:13:47.645Z,63.76
2022-12-08T20:16:49.895Z,63.73
2022-12-08T20:19:51.572Z,64.05
2022-12-08T20:22:53.076Z,62.42
2022-12-08T20:25:54.519Z,63.90
2022-12-08T20:28:55.991Z,64.21
2022-12-08T20:31:57.567Z,63.10
2022-12-08T20:34:59.030Z,62.39
2022-12-08T20:38:00.558Z,62.14
2022-12-08T20:41:01.996Z,63.48
2022-12-08T20:44:05.631Z,63.43
2022-12-08T20:47:07.397Z,63.15
2022-12-08T20:50:09.847Z,63.71
2022-12-08T20:53:11.608Z,64.33
2022-12-08T20:56:18.873Z,63.01
2022-12-08T20:59:20.496Z,62.46
2022-12-08T21:02:22.348Z,63.05
2022-12-08T21:05:24.031Z,64.27
2022-12-08T21:08:25.980Z,64.56
2022-12-08T21:11:27.541Z,64.74
2022-12-08T21:14:29.106Z,64.68
2022-12-08T21:17:30.617Z,64.79
2022-12-08T21:20:32.493Z,64.45
2022-12-08T21:23:34.462Z,64.76
2022-12-08T21:26:36.081Z,65.06
2022-12-08T21:29:37.673Z,65.23
2022-12-08T21:32:39.632Z,64.72
2022-12-08T21:35:41.269Z,63.02
2022-12-08T21:38:43.633Z,63.40
2022-12-08T21:42:03.883Z,64.25
2022-12-08T21:45:05.735Z,63.37
2022-12-08T21:48:11.770Z,62.84
2022-12-08T21:51:13.936Z,64.51
2022-12-08T21:54:18.953Z,63.08
2022-12-08T21:57:20.944Z,62.87
2022-12-08T22:00:23.107Z,62.90
2022-12-08T22:03:24.809Z,62.82
2022-12-08T22:06:26.629Z,62.55
2022-12-08T22:09:28.173Z,62.23
2022-12-08T22:12:29.826Z,62.07
2022-12-08T22:15:32.668Z,62.55
2022-12-08T22:18:34.617Z,62.41
2022-12-08T22:21:38.193Z,62.32
2022-12-08T22:24:39.899Z,63.65
2022-12-08T22:27:41.678Z,63.71
2022-12-08T22:30:43.310Z,63.82
2022-12-08T22:33:44.900Z,62.49
2022-12-08T22:36:46.498Z,62.82
2022-12-08T22:39:48.000Z,62.72
2022-12-08T22:42:49.557Z,62.87
2022-12-08T22:45:51.234Z,62.35
2022-12-08T22:48:54.476Z,63.24
2022-12-08T22:51:56.032Z,62.15
2022-12-08T22:54:57.533Z,63.62
2022-12-08T22:57:59.115Z,63.92
2022-12-08T23:01:00.680Z,64.17
2022-12-08T23:04:02.416Z,64.37
2022-12-08T23:07:04.625Z,64.29
2022-12-08T23:10:07.783Z,64.18
2022-12-08T23:13:10.655Z,63.59
2022-12-08T23:16:14.439Z,63.27
2022-12-08T23:19:16.129Z,62.77
2022-12-08T23:22:17.656Z,62.23
2022-12-08T23:25:19.478Z,62.66
2022-12-08T23:28:21.055Z,63.34
2022-12-08T23:31:23.949Z,63.26
2022-12-08T23:34:25.817Z,63.13
2022-12-08T23:37:28.822Z,62.34
2022-12-08T23:40:30.476Z,62.74
2022-12-08T23:43:32.884Z,62.51
2022-12-08T23:46:34.735Z,62.91
2022-12-08T23:49:36.252Z,62.36
2022-12-08T23:52:39.540Z,62.64
2022-12-08T23:55:43.684Z,62.52
2022-12-08T23:58:46.002Z,62.59
